createdAt,value
2019-02-28T00:00:11.787Z,3.63
2019-02-28T00:01:12.866Z,3.93
2019-02-28T00:01:53.782Z,3.90
2019-02-28T00:02:30.858Z,3.77
2019-02-28T00:03:07.450Z,4.10
2019-02-28T00:03:43.993Z,3.57
2019-02-28T00:04:21.755Z,3.73
2019-02-28T00:04:59.245Z,3.87
2019-02-28T00:05:37.982Z,4.90
2019-02-28T00:06:14.949Z,2.93
2019-02-28T00:06:52.726Z,4.40
2019-02-28T00:07:29.135Z,3.57
2019-02-28T00:08:14.328Z,3.77
2019-02-28T00:08:53.654Z,2.60
2019-02-28T00:09:33.500Z,2.80
2019-02-28T00:10:11.437Z,3.70
2019-02-28T00:10:47.969Z,3.70
2019-02-28T00:11:31.998Z,4.30
2019-02-28T00:12:10.196Z,4.60
2019-02-28T00:12:48.079Z,3.50
2019-02-28T00:13:26.126Z,3.73
2019-02-28T00:14:03.169Z,3.47
2019-02-28T00:14:39.691Z,4.20
2019-02-28T00:15:15.879Z,3.67
2019-02-28T00:15:53.911Z,3.73
2019-02-28T00:16:30.298Z,3.80
2019-02-28T00:17:10.071Z,3.00
2019-02-28T00:17:47.314Z,3.60
2019-02-28T00:18:25.041Z,3.10
2019-02-28T00:19:02.593Z,3.17
2019-02-28T00:19:40.588Z,3.87
2019-02-28T00:20:17.523Z,3.00
2019-02-28T00:20:55.144Z,4.23
2019-02-28T00:21:32.269Z,4.07
2019-02-28T00:22:11.350Z,3.90
2019-02-28T00:22:49.305Z,4.17
2019-02-28T00:23:26.222Z,2.70
2019-02-28T00:24:02.826Z,3.13
2019-02-28T00:24:40.415Z,3.70
2019-02-28T00:25:17.224Z,3.57
2019-02-28T00:25:53.641Z,4.43
2019-02-28T00:26:29.990Z,4.20
2019-02-28T00:27:06.733Z,3.70
2019-02-28T00:27:43.316Z,3.90
2019-02-28T00:28:25.793Z,4.60
2019-02-28T00:29:02.753Z,4.30
2019-02-28T00:29:39.123Z,4.10
2019-02-28T00:30:18.804Z,4.10
2019-02-28T00:30:56.475Z,3.30
2019-02-28T00:31:33.990Z,4.10
2019-02-28T00:32:11.178Z,4.10
2019-02-28T00:32:48.332Z,4.30
2019-02-28T00:33:24.851Z,3.63
2019-02-28T00:34:04.516Z,4.47
2019-02-28T00:34:39.938Z,3.83
2019-02-28T00:35:16.485Z,3.93
2019-02-28T00:35:52.862Z,3.13
2019-02-28T00:36:29.882Z,3.50
2019-02-28T00:37:06.941Z,3.80
2019-02-28T00:37:44.379Z,4.20
2019-02-28T00:38:21.385Z,4.30
2019-02-28T00:38:59.952Z,4.50
2019-02-28T00:39:36.878Z,3.67
2019-02-28T00:40:13.299Z,3.37
2019-02-28T00:40:49.752Z,3.27
2019-02-28T00:41:26.663Z,4.10
2019-02-28T00:42:03.168Z,3.23
2019-02-28T00:42:44.447Z,3.70
2019-02-28T00:43:25.148Z,3.77
2019-02-28T00:44:01.349Z,4.17
2019-02-28T00:44:39.011Z,3.30
2019-02-28T00:45:15.592Z,3.97
2019-02-28T00:45:53.456Z,3.33
2019-02-28T00:46:30.997Z,3.40
2019-02-28T00:47:08.204Z,4.10
2019-02-28T00:47:47.561Z,2.60
2019-02-28T00:48:31.170Z,3.70
2019-02-28T00:49:07.709Z,3.90
2019-02-28T00:49:44.084Z,4.20
2019-02-28T00:50:20.603Z,3.10
2019-02-28T00:50:58.454Z,3.23
2019-02-28T00:51:38.112Z,3.60
2019-02-28T00:52:14.521Z,4.13
2019-02-28T00:52:51.086Z,3.67
2019-02-28T00:53:27.927Z,4.03
2019-02-28T00:54:04.194Z,2.90
2019-02-28T00:54:44.385Z,4.00
2019-02-28T00:55:19.216Z,2.47
2019-02-28T00:55:55.502Z,3.63
2019-02-28T00:56:35.847Z,3.30
2019-02-28T00:57:33.351Z,4.40
2019-02-28T00:58:13.124Z,4.07
2019-02-28T00:58:50.175Z,3.27
2019-02-28T00:59:27.016Z,4.23
2019-02-28T01:00:05.654Z,4.00
2019-02-28T01:01:03.590Z,2.90
2019-02-28T01:01:43.130Z,3.30
2019-02-28T01:02:21.854Z,4.10
2019-02-28T01:02:58.277Z,3.87
2019-02-28T01:03:35.183Z,5.20
2019-02-28T01:04:15.441Z,5.00
2019-02-28T01:04:53.280Z,4.10
2019-02-28T01:05:37.208Z,3.73
2019-02-28T01:06:17.187Z,3.60
2019-02-28T01:06:55.144Z,3.63
2019-02-28T01:07:31.740Z,4.20
2019-02-28T01:08:10.527Z,3.00
2019-02-28T01:08:55.704Z,3.47
2019-02-28T01:09:32.730Z,4.23
2019-02-28T01:10:11.953Z,3.30
2019-02-28T01:10:49.220Z,4.17
2019-02-28T01:11:25.834Z,4.13
2019-02-28T01:12:02.177Z,3.23
2019-02-28T01:12:46.785Z,3.20
2019-02-28T01:13:27.533Z,4.70
2019-02-28T01:14:03.482Z,3.10
2019-02-28T01:15:01.332Z,4.47
2019-02-28T01:15:37.689Z,4.40
2019-02-28T01:16:16.057Z,4.53
2019-02-28T01:16:55.294Z,5.40
2019-02-28T01:17:32.594Z,5.30
2019-02-28T01:18:11.741Z,3.83
2019-02-28T01:18:48.107Z,4.87
2019-02-28T01:19:24.805Z,4.53
2019-02-28T01:20:02.565Z,4.80
2019-02-28T01:20:42.419Z,3.77
2019-02-28T01:21:23.699Z,3.93
2019-02-28T01:22:15.754Z,5.77
2019-02-28T01:22:52.814Z,3.63
2019-02-28T01:23:30.190Z,4.00
2019-02-28T01:24:07.195Z,5.77
2019-02-28T01:24:44.717Z,5.33
2019-02-28T01:25:23.161Z,3.60
2019-02-28T01:26:16.838Z,3.77
2019-02-28T01:26:53.439Z,3.93
2019-02-28T01:27:31.129Z,4.10
2019-02-28T01:28:09.405Z,4.40
2019-02-28T01:28:45.796Z,4.23
2019-02-28T01:29:22.197Z,3.67
2019-02-28T01:30:00.401Z,4.10
2019-02-28T01:30:40.607Z,5.07
2019-02-28T01:31:17.151Z,5.30
2019-02-28T01:31:53.583Z,4.00
2019-02-28T01:32:31.371Z,3.97
2019-02-28T01:33:08.787Z,3.60
2019-02-28T01:33:45.185Z,4.10
2019-02-28T01:34:22.914Z,4.00
2019-02-28T01:35:05.874Z,3.23
2019-02-28T01:35:40.902Z,4.17
2019-02-28T01:36:16.975Z,5.30
2019-02-28T01:36:53.513Z,3.73
2019-02-28T01:37:32.621Z,4.53
2019-02-28T01:38:09.626Z,4.27
2019-02-28T01:38:46.035Z,3.83
2019-02-28T01:39:24.342Z,3.60
2019-02-28T01:40:05.334Z,4.03
2019-02-28T01:40:42.646Z,3.80
2019-02-28T01:41:19.738Z,3.27
2019-02-28T01:41:56.417Z,4.03
2019-02-28T01:42:34.211Z,3.20
2019-02-28T01:43:11.953Z,3.53
2019-02-28T01:43:49.438Z,3.57
2019-02-28T01:44:27.234Z,3.90
2019-02-28T01:45:10.063Z,3.60
2019-02-28T01:45:47.131Z,2.80
2019-02-28T01:46:26.008Z,3.60
2019-02-28T01:47:03.769Z,3.77
2019-02-28T01:47:40.790Z,3.40
2019-02-28T01:48:17.043Z,3.47
2019-02-28T01:48:54.528Z,3.70
2019-02-28T01:49:31.550Z,3.50
2019-02-28T01:50:10.799Z,4.13
2019-02-28T01:50:47.072Z,3.60
2019-02-28T01:51:24.721Z,4.57
2019-02-28T01:52:01.072Z,3.10
2019-02-28T01:52:37.423Z,4.00
2019-02-28T01:53:18.717Z,3.57
2019-02-28T01:53:56.971Z,3.90
2019-02-28T01:54:33.437Z,4.00
2019-02-28T01:55:10.091Z,2.70
2019-02-28T01:55:47.314Z,3.13
2019-02-28T01:56:24.339Z,4.00
2019-02-28T01:57:12.979Z,3.60
2019-02-28T01:57:49.325Z,3.53
2019-02-28T01:58:28.256Z,3.60
2019-02-28T01:59:04.904Z,3.53
2019-02-28T01:59:41.322Z,3.97
2019-02-28T02:00:20.289Z,4.67
2019-02-28T02:00:58.192Z,5.80
2019-02-28T02:01:55.894Z,5.83
2019-02-28T02:02:43.171Z,4.70
2019-02-28T02:03:40.655Z,5.07
2019-02-28T02:04:17.725Z,4.90
2019-02-28T02:04:56.767Z,5.33
2019-02-28T02:05:35.046Z,4.67
2019-02-28T02:06:11.536Z,4.43
2019-02-28T02:06:47.994Z,4.17
2019-02-28T02:07:24.929Z,4.40
2019-02-28T02:08:06.478Z,4.23
2019-02-28T02:09:14.551Z,3.90
2019-02-28T02:09:51.170Z,3.63
2019-02-28T02:10:30.188Z,4.87
2019-02-28T02:11:19.959Z,4.57
2019-02-28T02:11:58.900Z,5.57
2019-02-28T02:12:35.608Z,4.10
2019-02-28T02:13:12.119Z,5.00
2019-02-28T02:13:48.661Z,3.40
2019-02-28T02:14:26.289Z,5.20
2019-02-28T02:15:03.880Z,5.30
2019-02-28T02:15:40.914Z,4.57
2019-02-28T02:16:17.807Z,4.60
2019-02-28T02:16:54.949Z,4.73
2019-02-28T02:17:35.482Z,4.57
2019-02-28T02:18:10.993Z,4.60
2019-02-28T02:18:48.149Z,3.80
2019-02-28T02:19:25.207Z,4.20
2019-02-28T02:20:01.788Z,3.87
2019-02-28T02:20:38.862Z,4.93
2019-02-28T02:21:17.048Z,3.80
2019-02-28T02:21:56.514Z,4.70
2019-02-28T02:22:33.170Z,3.50
2019-02-28T02:23:10.625Z,4.60
2019-02-28T02:23:49.567Z,4.70
2019-02-28T02:24:27.943Z,4.30
2019-02-28T02:25:13.739Z,3.87
2019-02-28T02:25:50.257Z,3.83
2019-02-28T02:26:29.345Z,5.23
2019-02-28T02:27:05.789Z,5.07
2019-02-28T02:27:42.359Z,4.93
2019-02-28T02:28:18.729Z,4.10
2019-02-28T02:29:00.859Z,4.60
2019-02-28T02:29:41.060Z,5.00
2019-02-28T02:30:23.732Z,4.00
2019-02-28T02:31:01.698Z,4.40
2019-02-28T02:31:43.534Z,4.87
2019-02-28T02:32:21.687Z,3.73
2019-02-28T02:32:59.336Z,4.90
2019-02-28T02:33:37.318Z,4.80
2019-02-28T02:34:13.614Z,5.60
2019-02-28T02:34:51.516Z,4.60
2019-02-28T02:35:29.234Z,6.13
2019-02-28T02:36:05.551Z,4.67
2019-02-28T02:36:44.717Z,4.90
2019-02-28T02:37:26.342Z,5.80
2019-02-28T02:38:03.515Z,4.80
2019-02-28T02:38:41.813Z,5.10
2019-02-28T02:39:19.299Z,4.93
2019-02-28T02:39:56.803Z,5.30
2019-02-28T02:40:33.057Z,4.77
2019-02-28T02:41:11.336Z,4.93
2019-02-28T02:41:47.633Z,4.70
2019-02-28T02:42:23.958Z,4.80
2019-02-28T02:43:00.376Z,5.00
2019-02-28T02:43:41.525Z,4.80
2019-02-28T02:44:21.173Z,4.63
2019-02-28T02:44:58.511Z,6.30
2019-02-28T02:45:41.661Z,5.60
2019-02-28T02:46:20.197Z,5.30
2019-02-28T02:46:56.998Z,5.67
2019-02-28T02:47:34.807Z,4.80
2019-02-28T02:48:11.317Z,5.93
2019-02-28T02:48:48.735Z,4.37
2019-02-28T02:49:26.489Z,5.57
2019-02-28T02:50:04.097Z,4.90
2019-02-28T02:50:42.176Z,4.40
2019-02-28T02:51:19.745Z,4.50
2019-02-28T02:51:58.671Z,6.23
2019-02-28T02:52:39.887Z,4.40
2019-02-28T02:53:18.366Z,6.00
2019-02-28T02:53:57.435Z,5.60
2019-02-28T02:54:52.083Z,5.17
2019-02-28T02:55:31.133Z,4.43
2019-02-28T02:56:07.698Z,5.10
2019-02-28T02:56:45.499Z,4.50
2019-02-28T02:57:33.163Z,5.47
2019-02-28T02:58:12.218Z,3.73
2019-02-28T02:58:53.954Z,5.10
2019-02-28T02:59:37.474Z,6.00
2019-02-28T03:00:17.444Z,5.53
2019-02-28T03:00:53.687Z,4.43
2019-02-28T03:01:30.086Z,4.77
2019-02-28T03:02:09.497Z,4.80
2019-02-28T03:03:06.151Z,5.57
2019-02-28T03:03:44.568Z,5.43
2019-02-28T03:04:24.888Z,5.50
2019-02-28T03:05:01.152Z,4.90
2019-02-28T03:05:39.804Z,5.80
2019-02-28T03:06:17.295Z,5.83
2019-02-28T03:06:53.570Z,6.03
2019-02-28T03:07:32.049Z,5.07
2019-02-28T03:08:08.441Z,4.30
2019-02-28T03:08:44.921Z,5.10
2019-02-28T03:09:21.357Z,5.97
2019-02-28T03:10:03.537Z,4.77
2019-02-28T03:10:41.439Z,5.50
2019-02-28T03:11:26.549Z,5.10
2019-02-28T03:12:02.923Z,5.50
2019-02-28T03:12:39.257Z,5.77
2019-02-28T03:13:20.191Z,5.10
2019-02-28T03:14:00.180Z,5.63
2019-02-28T03:14:39.770Z,5.17
2019-02-28T03:15:24.943Z,5.00
2019-02-28T03:15:59.526Z,5.53
2019-02-28T03:16:37.322Z,5.57
2019-02-28T03:17:24.329Z,5.57
2019-02-28T03:18:00.826Z,6.10
2019-02-28T03:18:39.896Z,5.10
2019-02-28T03:19:19.717Z,4.60
2019-02-28T03:19:57.491Z,6.20
2019-02-28T03:20:35.440Z,5.77
2019-02-28T03:21:15.188Z,5.27
2019-02-28T03:21:52.832Z,4.40
2019-02-28T03:22:30.366Z,4.97
2019-02-28T03:23:17.300Z,5.47
2019-02-28T03:23:59.626Z,5.17
2019-02-28T03:24:50.703Z,5.10
2019-02-28T03:25:35.490Z,4.50
2019-02-28T03:26:11.988Z,5.17
2019-02-28T03:26:48.626Z,4.37
2019-02-28T03:27:24.994Z,5.80
2019-02-28T03:28:32.021Z,5.40
2019-02-28T03:29:07.908Z,5.70
2019-02-28T03:29:44.971Z,4.70
2019-02-28T03:30:31.023Z,5.30
2019-02-28T03:31:16.001Z,6.07
2019-02-28T03:31:56.556Z,6.17
2019-02-28T03:32:39.286Z,5.00
2019-02-28T03:33:24.275Z,4.50
2019-02-28T03:33:55.319Z,4.47
2019-02-28T03:34:32.926Z,5.50
2019-02-28T03:35:10.693Z,5.10
2019-02-28T03:35:56.221Z,5.10
2019-02-28T03:36:32.537Z,4.33
2019-02-28T03:37:12.270Z,4.13
2019-02-28T03:37:50.215Z,5.00
2019-02-28T03:38:26.715Z,5.07
2019-02-28T03:39:03.229Z,4.70
2019-02-28T03:39:44.283Z,4.67
2019-02-28T03:40:20.663Z,4.80
2019-02-28T03:40:57.911Z,5.13
2019-02-28T03:41:34.314Z,5.80
2019-02-28T03:42:10.673Z,5.30
2019-02-28T03:42:49.221Z,4.77
2019-02-28T03:43:28.063Z,6.10
2019-02-28T03:44:04.512Z,4.93
2019-02-28T03:44:41.063Z,5.30
2019-02-28T03:45:17.536Z,6.00
2019-02-28T03:45:53.941Z,5.13
2019-02-28T03:46:30.296Z,4.67
2019-02-28T03:47:08.514Z,5.43
2019-02-28T03:47:47.888Z,4.80
2019-02-28T03:48:25.414Z,5.70
2019-02-28T03:49:01.867Z,4.57
2019-02-28T03:49:38.179Z,5.50
2019-02-28T03:50:21.892Z,5.67
2019-02-28T03:50:57.166Z,5.23
2019-02-28T03:51:35.033Z,5.30
2019-02-28T03:52:11.384Z,6.30
2019-02-28T03:52:51.961Z,5.60
2019-02-28T03:53:29.491Z,5.43
2019-02-28T03:54:06.440Z,5.30
2019-02-28T03:54:47.811Z,5.57
2019-02-28T03:55:28.361Z,5.40
2019-02-28T03:56:14.380Z,5.70
2019-02-28T03:56:52.878Z,5.17
2019-02-28T03:57:29.424Z,6.07
2019-02-28T03:58:06.132Z,5.40
2019-02-28T03:58:47.261Z,4.57
2019-02-28T03:59:25.907Z,4.63
2019-02-28T04:00:02.277Z,5.67
2019-02-28T04:00:38.521Z,5.60
2019-02-28T04:01:15.398Z,5.37
2019-02-28T04:01:51.746Z,5.53
2019-02-28T04:02:28.315Z,4.20
2019-02-28T04:03:04.750Z,7.20
2019-02-28T04:03:59.654Z,5.23
2019-02-28T04:04:36.820Z,5.20
2019-02-28T04:05:13.281Z,4.73
2019-02-28T04:05:49.730Z,5.60
2019-02-28T04:06:26.291Z,5.63
2019-02-28T04:07:02.971Z,5.40
2019-02-28T04:07:39.548Z,6.20
2019-02-28T04:08:16.362Z,5.70
2019-02-28T04:09:07.037Z,5.10
2019-02-28T04:09:43.804Z,6.00
2019-02-28T04:10:22.037Z,5.80
2019-02-28T04:10:56.520Z,5.93
2019-02-28T04:11:35.481Z,5.07
2019-02-28T04:12:11.606Z,4.87
2019-02-28T04:12:47.898Z,5.13
2019-02-28T04:13:24.300Z,6.00
2019-02-28T04:14:00.874Z,5.77
2019-02-28T04:14:37.248Z,5.37
2019-02-28T04:15:19.285Z,5.50
2019-02-28T04:16:08.675Z,6.07
2019-02-28T04:16:35.572Z,6.30
2019-02-28T04:17:11.944Z,5.40
2019-02-28T04:17:55.799Z,5.20
2019-02-28T04:18:32.296Z,5.80
2019-02-28T04:19:08.639Z,4.90
2019-02-28T04:19:49.805Z,4.70
2019-02-28T04:20:36.082Z,5.10
2019-02-28T04:21:18.100Z,5.50
2019-02-28T04:21:55.085Z,6.33
2019-02-28T04:22:31.389Z,5.40
2019-02-28T04:23:07.885Z,6.20
2019-02-28T04:23:48.819Z,5.00
2019-02-28T04:24:28.859Z,5.83
2019-02-28T04:25:26.498Z,4.63
2019-02-28T04:26:02.843Z,5.07
2019-02-28T04:26:39.279Z,5.47
2019-02-28T04:27:16.557Z,6.00
2019-02-28T04:27:52.963Z,5.53
2019-02-28T04:28:29.102Z,4.33
2019-02-28T04:29:05.504Z,6.00
2019-02-28T04:29:43.024Z,4.97
2019-02-28T04:30:19.456Z,6.13
2019-02-28T04:30:55.837Z,6.13
2019-02-28T04:31:33.295Z,5.70
2019-02-28T04:32:14.312Z,4.40
2019-02-28T04:32:50.911Z,5.00
2019-02-28T04:33:28.097Z,5.17
2019-02-28T04:34:16.092Z,5.67
2019-02-28T04:34:54.415Z,5.97
2019-02-28T04:35:36.312Z,5.27
2019-02-28T04:36:15.555Z,5.60
2019-02-28T04:36:51.870Z,4.73
2019-02-28T04:37:29.080Z,5.70
2019-02-28T04:38:06.933Z,4.40
2019-02-28T04:38:43.368Z,5.20
2019-02-28T04:39:38.396Z,5.27
2019-02-28T04:40:24.009Z,4.90
2019-02-28T04:41:00.909Z,5.00
2019-02-28T04:41:38.618Z,4.87
2019-02-28T04:42:29.074Z,6.33
2019-02-28T04:43:07.274Z,4.80
2019-02-28T04:43:50.266Z,5.10
2019-02-28T04:44:29.635Z,5.57
2019-02-28T04:45:06.396Z,5.50
2019-02-28T04:45:42.880Z,5.80
2019-02-28T04:46:24.033Z,5.73
2019-02-28T04:47:06.767Z,5.13
2019-02-28T04:47:43.365Z,5.70
2019-02-28T04:48:40.995Z,5.63
2019-02-28T04:49:21.779Z,6.23
2019-02-28T04:49:57.715Z,4.97
2019-02-28T04:50:34.052Z,5.73
2019-02-28T04:51:11.812Z,4.90
2019-02-28T04:52:08.030Z,6.50
2019-02-28T04:52:50.513Z,5.00
2019-02-28T04:53:33.340Z,5.63
2019-02-28T04:54:12.666Z,5.00
2019-02-28T04:55:08.257Z,6.00
2019-02-28T04:55:45.836Z,5.30
2019-02-28T04:56:23.410Z,5.40
2019-02-28T04:57:02.217Z,4.50
2019-02-28T04:57:38.521Z,5.30
2019-02-28T04:58:14.996Z,6.70
2019-02-28T04:58:53.017Z,4.80
2019-02-28T04:59:44.816Z,6.30
2019-02-28T05:00:22.400Z,4.53
2019-02-28T05:00:58.790Z,5.40
2019-02-28T05:01:45.288Z,6.60
2019-02-28T05:02:21.464Z,5.10
2019-02-28T05:03:03.769Z,5.30
2019-02-28T05:03:52.680Z,5.73
2019-02-28T05:04:36.128Z,5.20
2019-02-28T05:05:21.329Z,5.53
2019-02-28T05:05:59.357Z,5.63
2019-02-28T05:06:37.976Z,4.40
2019-02-28T05:07:14.447Z,5.87
2019-02-28T05:08:11.627Z,5.27
2019-02-28T05:08:49.185Z,5.03
2019-02-28T05:09:27.073Z,6.30
2019-02-28T05:10:03.522Z,5.00
2019-02-28T05:10:40.046Z,4.40
2019-02-28T05:11:18.736Z,5.00
2019-02-28T05:11:55.063Z,4.50
2019-02-28T05:12:54.288Z,5.20
2019-02-28T05:13:33.866Z,4.60
2019-02-28T05:14:13.928Z,4.07
2019-02-28T05:14:55.241Z,4.50
2019-02-28T05:15:31.265Z,3.47
2019-02-28T05:16:09.364Z,4.43
2019-02-28T05:16:47.474Z,3.93
2019-02-28T05:17:24.844Z,4.30
2019-02-28T05:18:01.261Z,4.03
2019-02-28T05:18:38.763Z,3.90
2019-02-28T05:19:15.230Z,4.20
2019-02-28T05:19:52.667Z,4.23
2019-02-28T05:20:30.574Z,4.03
2019-02-28T05:21:06.907Z,4.53
2019-02-28T05:21:44.525Z,4.27
2019-02-28T05:22:21.027Z,4.70
2019-02-28T05:23:08.645Z,5.07
2019-02-28T05:23:44.991Z,3.70
2019-02-28T05:24:23.204Z,4.20
2019-02-28T05:25:01.073Z,4.47
2019-02-28T05:25:42.082Z,5.00
2019-02-28T05:26:26.123Z,4.70
2019-02-28T05:27:01.415Z,4.80
2019-02-28T05:27:38.832Z,4.40
2019-02-28T05:28:15.192Z,5.00
2019-02-28T05:28:53.996Z,5.17
2019-02-28T05:29:30.489Z,4.80
2019-02-28T05:30:26.428Z,4.07
2019-02-28T05:31:24.166Z,4.47
2019-02-28T05:32:19.109Z,4.00
2019-02-28T05:32:55.411Z,4.80
2019-02-28T05:33:34.544Z,4.60
2019-02-28T05:34:13.201Z,3.77
2019-02-28T05:34:52.148Z,4.53
2019-02-28T05:35:28.589Z,4.77
2019-02-28T05:36:04.757Z,4.13
2019-02-28T05:36:42.158Z,5.17
2019-02-28T05:37:18.543Z,5.10
2019-02-28T05:37:56.445Z,3.70
2019-02-28T05:38:32.932Z,4.73
2019-02-28T05:39:16.895Z,5.33
2019-02-28T05:39:53.280Z,4.90
2019-02-28T05:40:30.637Z,4.47
2019-02-28T05:41:06.983Z,4.00
2019-02-28T05:41:49.124Z,3.70
2019-02-28T05:42:25.069Z,3.97
2019-02-28T05:43:06.424Z,4.27
2019-02-28T05:43:42.928Z,3.37
2019-02-28T05:44:21.298Z,3.53
2019-02-28T05:44:57.478Z,3.40
2019-02-28T05:45:36.881Z,2.97
2019-02-28T05:46:14.738Z,2.10
2019-02-28T05:47:01.043Z,2.17
2019-02-28T05:47:46.179Z,1.83
2019-02-28T05:48:15.596Z,2.07
2019-02-28T05:48:54.705Z,1.87
2019-02-28T05:49:31.126Z,2.67
2019-02-28T05:50:07.694Z,2.50
2019-02-28T05:50:53.276Z,2.90
2019-02-28T05:51:33.654Z,3.10
2019-02-28T05:52:09.835Z,2.53
2019-02-28T05:52:46.295Z,2.10
2019-02-28T05:53:22.670Z,2.50
2019-02-28T05:54:01.392Z,1.73
2019-02-28T05:54:38.745Z,2.17
2019-02-28T05:55:15.194Z,2.37
2019-02-28T05:55:58.919Z,1.70
2019-02-28T05:56:34.079Z,1.80
2019-02-28T05:57:15.407Z,1.87
2019-02-28T05:57:56.575Z,1.63
2019-02-28T05:58:32.860Z,1.97
2019-02-28T05:59:11.270Z,1.33
2019-02-28T05:59:48.364Z,1.23
2019-02-28T06:00:25.461Z,1.43
2019-02-28T06:01:05.560Z,1.53
2019-02-28T06:01:43.527Z,1.50
2019-02-28T06:02:31.811Z,1.73
2019-02-28T06:03:13.228Z,2.10
2019-02-28T06:03:49.663Z,3.30
2019-02-28T06:04:25.842Z,2.40
2019-02-28T06:05:02.341Z,3.00
2019-02-28T06:05:43.438Z,3.00
2019-02-28T06:06:20.143Z,3.47
2019-02-28T06:07:03.984Z,2.90
2019-02-28T06:07:41.900Z,3.47
2019-02-28T06:08:20.684Z,3.50
2019-02-28T06:08:58.227Z,3.80
2019-02-28T06:09:34.597Z,3.23
2019-02-28T06:10:11.350Z,3.77
2019-02-28T06:10:47.702Z,3.37
2019-02-28T06:11:25.187Z,3.70
2019-02-28T06:12:03.501Z,3.67
2019-02-28T06:12:43.670Z,4.27
2019-02-28T06:13:22.252Z,4.83
2019-02-28T06:13:58.469Z,3.43
2019-02-28T06:14:35.697Z,3.60
2019-02-28T06:15:12.598Z,3.87
2019-02-28T06:15:49.086Z,4.30
2019-02-28T06:16:25.428Z,4.20
2019-02-28T06:17:05.251Z,4.43
2019-02-28T06:17:41.629Z,4.67
2019-02-28T06:18:21.052Z,5.00
2019-02-28T06:18:58.116Z,4.67
2019-02-28T06:19:34.514Z,4.90
2019-02-28T06:20:16.554Z,4.97
2019-02-28T06:20:52.258Z,4.43
2019-02-28T06:21:40.723Z,4.00
2019-02-28T06:22:18.450Z,4.37
2019-02-28T06:22:55.381Z,4.47
2019-02-28T06:23:33.057Z,5.50
2019-02-28T06:24:12.735Z,5.27
2019-02-28T06:24:53.177Z,5.60
2019-02-28T06:25:30.962Z,4.80
2019-02-28T06:26:08.034Z,4.67
2019-02-28T06:26:44.389Z,5.27
2019-02-28T06:27:24.244Z,4.33
2019-02-28T06:28:00.735Z,5.10
2019-02-28T06:28:37.710Z,4.20
2019-02-28T06:29:14.273Z,3.83
2019-02-28T06:29:50.572Z,4.73
2019-02-28T06:30:27.790Z,4.53
2019-02-28T06:31:04.846Z,3.85
2019-02-28T06:31:41.335Z,4.40
2019-02-28T06:32:23.260Z,3.50
2019-02-28T06:32:59.600Z,4.10
2019-02-28T06:33:37.186Z,4.17
2019-02-28T06:34:13.624Z,4.47
2019-02-28T06:34:52.297Z,4.00
2019-02-28T06:35:34.984Z,3.53
2019-02-28T06:36:11.224Z,4.60
2019-02-28T06:36:47.570Z,4.07
2019-02-28T06:37:26.289Z,4.23
2019-02-28T06:38:06.700Z,4.07
2019-02-28T06:38:54.545Z,4.57
2019-02-28T06:39:31.395Z,4.27
2019-02-28T06:40:09.196Z,4.50
2019-02-28T06:40:45.730Z,4.00
2019-02-28T06:41:23.147Z,5.53
2019-02-28T06:42:07.972Z,5.10
2019-02-28T06:42:46.768Z,5.30
2019-02-28T06:43:24.045Z,4.50
2019-02-28T06:44:00.365Z,4.00
2019-02-28T06:44:42.885Z,4.53
2019-02-28T06:45:20.326Z,4.27
2019-02-28T06:45:56.647Z,4.67
2019-02-28T06:46:34.255Z,4.53
2019-02-28T06:47:21.447Z,5.60
2019-02-28T06:48:00.814Z,5.03
2019-02-28T06:48:37.186Z,4.20
2019-02-28T06:49:14.573Z,4.83
2019-02-28T06:49:53.818Z,3.90
2019-02-28T06:50:30.534Z,4.10
2019-02-28T06:51:06.858Z,4.43
2019-02-28T06:51:45.025Z,4.23
2019-02-28T06:52:25.240Z,5.13
2019-02-28T06:53:03.512Z,4.27
2019-02-28T06:53:42.017Z,3.60
2019-02-28T06:54:21.344Z,4.00
2019-02-28T06:55:02.164Z,4.70
2019-02-28T06:55:50.567Z,4.70
2019-02-28T06:56:31.923Z,4.03
2019-02-28T06:57:08.171Z,4.27
2019-02-28T06:57:44.530Z,4.13
2019-02-28T06:58:21.139Z,4.00
2019-02-28T06:59:04.931Z,3.63
2019-02-28T06:59:41.113Z,4.20
2019-02-28T07:00:25.772Z,3.47
2019-02-28T07:01:03.033Z,3.35
2019-02-28T07:01:46.328Z,3.77
2019-02-28T07:02:23.985Z,3.30
2019-02-28T07:03:03.364Z,4.83
2019-02-28T07:03:42.502Z,4.13
2019-02-28T07:04:18.708Z,4.53
2019-02-28T07:04:56.137Z,3.50
2019-02-28T07:05:33.864Z,3.67
2019-02-28T07:06:12.203Z,3.67
2019-02-28T07:06:52.257Z,3.83
2019-02-28T07:07:29.504Z,3.60
2019-02-28T07:08:05.815Z,4.40
2019-02-28T07:08:46.686Z,4.10
2019-02-28T07:09:25.775Z,3.30
2019-02-28T07:10:02.974Z,3.80
2019-02-28T07:10:48.384Z,4.87
2019-02-28T07:11:23.714Z,4.00
2019-02-28T07:12:02.826Z,3.87
2019-02-28T07:13:04.495Z,3.53
2019-02-28T07:13:40.688Z,3.83
2019-02-28T07:14:18.462Z,3.60
2019-02-28T07:14:56.339Z,4.53
2019-02-28T07:15:40.568Z,3.53
2019-02-28T07:16:18.420Z,3.50
2019-02-28T07:16:57.279Z,2.93
2019-02-28T07:17:33.743Z,3.70
2019-02-28T07:18:18.804Z,3.40
2019-02-28T07:18:59.082Z,3.60
2019-02-28T07:19:35.279Z,3.30
2019-02-28T07:20:16.853Z,3.13
2019-02-28T07:20:53.412Z,3.60
2019-02-28T07:21:31.580Z,3.87
2019-02-28T07:22:09.274Z,3.17
2019-02-28T07:22:58.245Z,3.30
2019-02-28T07:23:35.020Z,3.90
2019-02-28T07:24:20.850Z,4.30
2019-02-28T07:24:59.592Z,3.20
2019-02-28T07:25:56.865Z,3.80
2019-02-28T07:26:33.645Z,3.57
2019-02-28T07:27:11.990Z,2.93
2019-02-28T07:27:54.102Z,3.33
2019-02-28T07:28:48.751Z,3.23
2019-02-28T07:29:26.028Z,3.00
2019-02-28T07:30:05.805Z,3.30
2019-02-28T07:30:50.348Z,3.70
2019-02-28T07:31:25.566Z,3.57
2019-02-28T07:32:04.316Z,3.43
2019-02-28T07:32:41.686Z,4.17
2019-02-28T07:33:18.042Z,3.93
2019-02-28T07:33:54.563Z,3.40
2019-02-28T07:34:36.947Z,3.23
2019-02-28T07:35:15.665Z,3.17
2019-02-28T07:35:54.715Z,2.90
2019-02-28T07:36:31.144Z,4.13
2019-02-28T07:37:07.401Z,3.10
2019-02-28T07:37:43.706Z,3.30
2019-02-28T07:38:20.357Z,3.30
2019-02-28T07:39:01.249Z,2.73
2019-02-28T07:39:41.828Z,3.57
2019-02-28T07:40:18.190Z,4.20
2019-02-28T07:40:55.735Z,3.60
2019-02-28T07:41:45.059Z,3.90
2019-02-28T07:42:21.261Z,3.80
2019-02-28T07:43:17.300Z,3.57
2019-02-28T07:44:24.039Z,3.67
2019-02-28T07:45:03.364Z,3.50
2019-02-28T07:46:42.271Z,3.67
2019-02-28T07:47:39.924Z,5.20
2019-02-28T07:48:17.802Z,4.40
2019-02-28T07:49:01.589Z,3.67
2019-02-28T07:49:41.927Z,3.80
2019-02-28T07:50:21.778Z,3.40
2019-02-28T07:50:59.293Z,5.57
2019-02-28T07:51:36.399Z,4.77
2019-02-28T07:52:20.473Z,6.00
2019-02-28T07:52:59.475Z,4.00
2019-02-28T07:53:35.697Z,4.30
2019-02-28T07:54:15.959Z,3.87
2019-02-28T07:54:55.520Z,3.33
2019-02-28T07:55:32.332Z,3.67
2019-02-28T07:56:08.750Z,3.97
2019-02-28T07:56:45.392Z,3.90
2019-02-28T07:57:28.228Z,4.43
2019-02-28T07:58:16.835Z,4.23
2019-02-28T07:59:00.570Z,4.10
2019-02-28T07:59:42.377Z,4.53
2019-02-28T08:00:48.465Z,4.57
2019-02-28T08:01:27.754Z,4.10
2019-02-28T08:02:19.537Z,4.83
2019-02-28T08:02:56.047Z,4.63
2019-02-28T08:03:32.535Z,3.63
2019-02-28T12:57:31.510Z,9.43
2019-02-28T12:58:11.597Z,7.10
2019-02-28T12:59:01.390Z,7.90
2019-02-28T12:59:41.924Z,6.73
2019-02-28T13:00:46.498Z,6.70
2019-02-28T13:01:23.147Z,7.20
2019-02-28T13:02:08.478Z,8.17
2019-02-28T13:02:55.193Z,7.40
2019-02-28T13:03:33.001Z,6.90
2019-02-28T13:04:12.903Z,7.17
2019-02-28T13:04:50.889Z,7.27
2019-02-28T13:05:31.055Z,6.30
2019-02-28T13:06:08.532Z,6.63
2019-02-28T13:06:48.475Z,5.17
2019-02-28T13:07:30.497Z,4.30
2019-02-28T13:08:05.997Z,6.37
2019-02-28T13:08:45.046Z,5.17
2019-02-28T13:09:30.188Z,5.53
2019-02-28T13:10:07.463Z,5.30
2019-02-28T13:10:44.444Z,5.37
2019-02-28T13:11:21.542Z,5.17
2019-02-28T13:12:00.270Z,4.80
2019-02-28T13:12:48.972Z,4.53
2019-02-28T13:14:41.835Z,4.60
2019-02-28T13:15:18.692Z,4.53
2019-02-28T13:15:57.376Z,4.00
2019-02-28T13:16:40.997Z,4.10
2019-02-28T13:17:31.765Z,4.07
2019-02-28T13:18:10.373Z,3.50
2019-02-28T13:19:00.916Z,3.50
2019-02-28T13:19:38.408Z,3.30
2019-02-28T13:20:19.755Z,4.13
2019-02-28T13:21:06.167Z,4.37
2019-02-28T13:21:59.637Z,3.90
2019-02-28T13:22:36.787Z,3.73
2019-02-28T13:23:17.166Z,3.37
2019-02-28T13:24:13.623Z,4.00
2019-02-28T13:24:53.023Z,3.80
2019-02-28T13:25:30.588Z,3.40
2019-02-28T13:26:11.073Z,3.80
2019-02-28T13:26:54.579Z,4.57
2019-02-28T13:27:32.176Z,3.50
2019-02-28T13:28:09.374Z,3.70
2019-02-28T13:28:49.301Z,3.00
2019-02-28T13:29:34.491Z,3.20
2019-02-28T13:30:26.976Z,3.50
2019-02-28T13:31:03.886Z,3.20
2019-02-28T13:31:53.156Z,3.83
2019-02-28T13:32:38.237Z,3.10
2019-02-28T13:33:19.108Z,3.03
2019-02-28T13:33:58.389Z,3.00
2019-02-28T13:35:45.689Z,3.83
2019-02-28T13:36:26.424Z,3.80
2019-02-28T13:37:03.647Z,2.83
2019-02-28T13:37:50.851Z,3.30
2019-02-28T13:38:31.577Z,3.87
2019-02-28T13:39:23.467Z,4.40
2019-02-28T13:40:00.475Z,3.40
2019-02-28T13:40:55.842Z,3.30
2019-02-28T13:41:33.928Z,3.80
2019-02-28T13:42:13.682Z,3.80
2019-02-28T13:43:28.770Z,3.63
2019-02-28T13:44:05.325Z,4.20